createdAt,value
2022-08-24T00:14:18.520Z,28.065
2022-08-24T00:29:20.752Z,28.865
2022-08-24T00:44:22.939Z,27.702
2022-08-24T00:59:25.165Z,27.514
2022-08-24T01:14:27.393Z,27.024
2022-08-24T01:29:29.577Z,26.734
2022-08-24T01:44:33.206Z,29.606
2022-08-24T01:59:35.468Z,30.415
2022-08-24T02:14:37.692Z,32.176
2022-08-24T02:29:40.048Z,32.258
2022-08-24T02:44:42.343Z,34.471
2022-08-24T02:59:44.556Z,34.01
2022-08-24T03:14:46.750Z,35.246
2022-08-24T03:29:48.912Z,36.354
2022-08-24T03:44:52.319Z,37.394
2022-08-24T03:59:54.516Z,38.79
2022-08-24T04:14:56.728Z,39.753
2022-08-24T04:29:58.968Z,39.3
2022-08-24T04:45:01.230Z,40.806
2022-08-24T05:00:03.541Z,40.902
2022-08-24T05:15:05.703Z,42.378
2022-08-24T05:30:07.914Z,44.396
2022-08-24T05:45:10.126Z,42.621
2022-08-24T06:00:12.339Z,44.811
2022-08-24T06:15:14.512Z,45.706
2022-08-24T06:30:16.754Z,46.669
2022-08-24T06:45:18.944Z,45.584
2022-08-24T07:00:21.129Z,47.467
2022-08-24T07:15:23.367Z,45.929
2022-08-24T07:30:27.270Z,47.403
2022-08-24T07:45:30.375Z,48.107
2022-08-24T08:00:32.624Z,48.577
2022-08-24T08:15:34.948Z,48.68
2022-08-24T08:30:38.264Z,48.02
2022-08-24T08:45:40.641Z,50.409
2022-08-24T09:00:42.908Z,51.219
2022-08-24T09:15:45.143Z,50.674
2022-08-24T09:30:47.723Z,52.133
2022-08-24T09:45:52.068Z,51.516
2022-08-24T10:00:54.779Z,53.13
2022-08-24T10:15:59.257Z,52.68
2022-08-24T10:31:01.496Z,54.371
2022-08-24T10:46:03.909Z,55.562
2022-08-24T11:01:06.197Z,55.122
2022-08-24T11:16:08.717Z,54.615
2022-08-24T11:31:11.013Z,55.749
2022-08-24T11:46:13.342Z,55.636
2022-08-24T12:01:15.617Z,56.181
2022-08-24T12:16:17.862Z,56.353
2022-08-24T12:31:20.169Z,58.572
2022-08-24T12:46:22.463Z,56.169
2022-08-24T13:01:26.961Z,58.898
2022-08-24T13:16:32.158Z,59.18
2022-08-24T13:31:34.513Z,59.136
2022-08-24T13:46:37.167Z,59.218
2022-08-24T14:01:39.712Z,57.44
2022-08-24T14:16:42.002Z,55.331
2022-08-24T14:31:45.870Z,46.096
2022-08-24T14:46:48.370Z,49.284
2022-08-24T15:01:50.665Z,49.442
2022-08-24T15:16:53.295Z,47.95
2022-08-24T15:31:56.309Z,46.827
2022-08-24T15:46:58.579Z,48.796
2022-08-24T16:02:00.756Z,47.738
2022-08-24T16:17:03.049Z,39.812
2022-08-24T16:32:05.518Z,36.593
2022-08-24T16:47:07.859Z,37.157
2022-08-24T17:02:10.124Z,38.888
2022-08-24T17:17:12.455Z,39.088
2022-08-24T17:32:14.880Z,39.721
2022-08-24T17:47:17.140Z,39.739
2022-08-24T18:02:19.409Z,39.943
2022-08-24T18:17:22.793Z,39.426
2022-08-24T18:32:30.984Z,39.23
2022-08-24T18:47:34.303Z,41.465
2022-08-24T19:02:36.797Z,41.222
2022-08-24T19:17:39.253Z,42.616
2022-08-24T19:32:41.473Z,41.617
2022-08-24T19:47:43.689Z,43.526
2022-08-24T20:02:46.047Z,42.396
2022-08-24T20:17:48.343Z,41.221
2022-08-24T20:32:50.531Z,41.508
2022-08-24T20:47:52.734Z,41.03
2022-08-24T21:02:54.984Z,38.629
2022-08-24T21:17:57.231Z,36.047
2022-08-24T21:32:59.515Z,36.122
2022-08-24T21:48:01.945Z,35.743
2022-08-24T22:03:04.515Z,37.665
2022-08-24T22:18:07.093Z,37.406
2022-08-24T22:33:09.362Z,36.712
2022-08-24T22:48:11.766Z,36.897
2022-08-24T23:03:14.342Z,34.89
2022-08-24T23:18:16.673Z,32.795
2022-08-24T23:33:18.873Z,32.164
2022-08-24T23:48:22.105Z,30.227
